sensor_id;sensor_type;location;lat;lon;timestamp;temperature;humidity
45339;DHT22;31071;51.478;5.710;2024-02-21T00:00:55;9.30;99.90
45339;DHT22;31071;51.478;5.710;2024-02-21T00:03:21;9.30;99.90
45339;DHT22;31071;51.478;5.710;2024-02-21T00:05:46;10.40;99.90
45339;DHT22;31071;51.478;5.710;2024-02-21T00:08:12;9.20;99.90
45339;DHT22;31071;51.478;5.710;2024-02-21T00:15:30;9.20;99.90
45339;DHT22;31071;51.478;5.710;2024-02-21T00:17:56;8.60;99.90
45339;DHT22;31071;51.478;5.710;2024-02-21T00:20:21;9.20;99.90
45339;DHT22;31071;51.478;5.710;2024-02-21T00:22:47;9.20;99.90
45339;DHT22;31071;51.478;5.710;2024-02-21T00:30:06;9.30;99.90
45339;DHT22;31071;51.478;5.710;2024-02-21T00:39:54;9.30;99.90
45339;DHT22;31071;51.478;5.710;2024-02-21T00:42:19;9.30;99.90
45339;DHT22;31071;51.478;5.710;2024-02-21T00:44:49;9.30;99.90
45339;DHT22;31071;51.478;5.710;2024-02-21T00:47:27;9.30;99.90
45339;DHT22;31071;51.478;5.710;2024-02-21T00:50:05;9.30;99.90
45339;DHT22;31071;51.478;5.710;2024-02-21T00:52:35;9.30;99.90
45339;DHT22;31071;51.478;5.710;2024-02-21T00:55:01;9.30;99.90
45339;DHT22;31071;51.478;5.710;2024-02-21T01:04:45;9.10;99.90
45339;DHT22;31071;51.478;5.710;2024-02-21T01:07:26;9.10;99.90
45339;DHT22;31071;51.478;5.710;2024-02-21T01:22:07;8.90;99.90
45339;DHT22;31071;51.478;5.710;2024-02-21T01:24:35;11.40;99.90
45339;DHT22;31071;51.478;5.710;2024-02-21T01:27:06;9.00;99.90
45339;DHT22;31071;51.478;5.710;2024-02-21T01:29:32;9.00;99.90
45339;DHT22;31071;51.478;5.710;2024-02-21T01:34:26;9.00;99.90
45339;DHT22;31071;51.478;5.710;2024-02-21T01:36:52;9.00;99.90
45339;DHT22;31071;51.478;5.710;2024-02-21T01:39:18;9.00;99.90
45339;DHT22;31071;51.478;5.710;2024-02-21T01:46:36;8.90;99.90
45339;DHT22;31071;51.478;5.710;2024-02-21T01:53:58;8.80;99.90
45339;DHT22;31071;51.478;5.710;2024-02-21T01:56:27;10.30;99.90
45339;DHT22;31071;51.478;5.710;2024-02-21T02:01:19;8.80;99.90
45339;DHT22;31071;51.478;5.710;2024-02-21T02:03:48;8.80;99.90
45339;DHT22;31071;51.478;5.710;2024-02-21T02:06:14;8.80;99.90
45339;DHT22;31071;51.478;5.710;2024-02-21T02:08:43;8.80;99.90
45339;DHT22;31071;51.478;5.710;2024-02-21T02:11:09;8.80;99.90
45339;DHT22;31071;51.478;5.710;2024-02-21T02:13:40;8.80;99.90
45339;DHT22;31071;51.478;5.710;2024-02-21T02:16:12;8.90;99.90
45339;DHT22;31071;51.478;5.710;2024-02-21T02:18:38;8.90;99.90
45339;DHT22;31071;51.478;5.710;2024-02-21T02:21:10;8.90;99.90
45339;DHT22;31071;51.478;5.710;2024-02-21T02:23:39;9.00;99.90
45339;DHT22;31071;51.478;5.710;2024-02-21T02:30:58;8.90;99.90
45339;DHT22;31071;51.478;5.710;2024-02-21T02:35:50;8.90;99.90
45339;DHT22;31071;51.478;5.710;2024-02-21T02:38:16;13.00;99.90
45339;DHT22;31071;51.478;5.710;2024-02-21T02:40:42;10.00;99.90
45339;DHT22;31071;51.478;5.710;2024-02-21T02:43:07;8.90;99.90
45339;DHT22;31071;51.478;5.710;2024-02-21T02:48:00;8.90;99.90
45339;DHT22;31071;51.478;5.710;2024-02-21T02:50:26;8.90;99.90
45339;DHT22;31071;51.478;5.710;2024-02-21T02:52:53;8.90;99.90
45339;DHT22;31071;51.478;5.710;2024-02-21T03:00:12;8.90;99.90
45339;DHT22;31071;51.478;5.710;2024-02-21T03:02:42;10.90;99.90
45339;DHT22;31071;51.478;5.710;2024-02-21T03:05:17;8.90;99.90
45339;DHT22;31071;51.478;5.710;2024-02-21T03:07:44;8.90;99.90
45339;DHT22;31071;51.478;5.710;2024-02-21T03:10:13;8.90;99.90
45339;DHT22;31071;51.478;5.710;2024-02-21T03:12:39;8.90;99.90
45339;DHT22;31071;51.478;5.710;2024-02-21T03:15:05;8.90;99.90
45339;DHT22;31071;51.478;5.710;2024-02-21T03:19:59;8.80;99.90
45339;DHT22;31071;51.478;5.710;2024-02-21T03:27:18;8.80;99.90
45339;DHT22;31071;51.478;5.710;2024-02-21T03:29:44;8.80;99.90
45339;DHT22;31071;51.478;5.710;2024-02-21T03:32:13;9.80;99.90
45339;DHT22;31071;51.478;5.710;2024-02-21T03:34:38;8.90;99.90
45339;DHT22;31071;51.478;5.710;2024-02-21T03:37:04;8.80;99.90
45339;DHT22;31071;51.478;5.710;2024-02-21T03:39:33;8.80;99.90
45339;DHT22;31071;51.478;5.710;2024-02-21T03:41:59;8.80;99.90
45339;DHT22;31071;51.478;5.710;2024-02-21T03:44:32;8.90;99.90
45339;DHT22;31071;51.478;5.710;2024-02-21T03:47:01;8.80;99.90
45339;DHT22;31071;51.478;5.710;2024-02-21T03:49:27;8.80;99.90
45339;DHT22;31071;51.478;5.710;2024-02-21T03:59:13;8.80;99.90
45339;DHT22;31071;51.478;5.710;2024-02-21T04:08:58;8.80;99.90
45339;DHT22;31071;51.478;5.710;2024-02-21T04:16:17;8.80;99.90
45339;DHT22;31071;51.478;5.710;2024-02-21T04:23:35;9.70;99.90
45339;DHT22;31071;51.478;5.710;2024-02-21T04:28:30;8.80;99.90
45339;DHT22;31071;51.478;5.710;2024-02-21T04:35:48;8.80;99.90
45339;DHT22;31071;51.478;5.710;2024-02-21T04:38:17;8.80;99.90
45339;DHT22;31071;51.478;5.710;2024-02-21T04:40:43;11.10;99.90
45339;DHT22;31071;51.478;5.710;2024-02-21T04:43:08;8.80;99.90
45339;DHT22;31071;51.478;5.710;2024-02-21T04:45:34;8.80;99.90
45339;DHT22;31071;51.478;5.710;2024-02-21T04:47:59;8.70;99.90
45339;DHT22;31071;51.478;5.710;2024-02-21T05:00:10;8.70;99.90
45339;DHT22;31071;51.478;5.710;2024-02-21T05:02:36;8.70;99.90
45339;DHT22;31071;51.478;5.710;2024-02-21T05:07:28;8.70;99.90
45339;DHT22;31071;51.478;5.710;2024-02-21T05:09:53;10.10;99.90
45339;DHT22;31071;51.478;5.710;2024-02-21T05:17:12;8.60;99.90
45339;DHT22;31071;51.478;5.710;2024-02-21T05:24:30;8.70;99.90
45339;DHT22;31071;51.478;5.710;2024-02-21T05:26:56;8.60;99.90
45339;DHT22;31071;51.478;5.710;2024-02-21T05:29:22;8.60;99.90
45339;DHT22;31071;51.478;5.710;2024-02-21T05:36:42;8.70;99.90
45339;DHT22;31071;51.478;5.710;2024-02-21T05:39:08;9.10;99.90
45339;DHT22;31071;51.478;5.710;2024-02-21T05:41:33;12.30;99.90
45339;DHT22;31071;51.478;5.710;2024-02-21T05:46:25;8.70;99.90
45339;DHT22;31071;51.478;5.710;2024-02-21T05:48:51;9.00;99.90
45339;DHT22;31071;51.478;5.710;2024-02-21T05:51:16;11.60;99.90
45339;DHT22;31071;51.478;5.710;2024-02-21T05:56:11;8.70;99.90
45339;DHT22;31071;51.478;5.710;2024-02-21T06:01:03;8.70;99.90
45339;DHT22;31071;51.478;5.710;2024-02-21T06:27:53;8.70;99.90
45339;DHT22;31071;51.478;5.710;2024-02-21T06:30:19;12.70;99.90
45339;DHT22;31071;51.478;5.710;2024-02-21T06:32:45;8.70;99.90
45339;DHT22;31071;51.478;5.710;2024-02-21T06:35:13;8.70;99.90
45339;DHT22;31071;51.478;5.710;2024-02-21T06:37:39;8.70;99.90
45339;DHT22;31071;51.478;5.710;2024-02-21T06:40:05;8.70;99.90
45339;DHT22;31071;51.478;5.710;2024-02-21T06:47:23;8.70;99.90
45339;DHT22;31071;51.478;5.710;2024-02-21T06:58:05;7.80;99.90
45339;DHT22;31071;51.478;5.710;2024-02-21T07:00:30;8.70;99.90
45339;DHT22;31071;51.478;5.710;2024-02-21T07:02:56;8.70;99.90
45339;DHT22;31071;51.478;5.710;2024-02-21T07:05:22;8.70;99.90
45339;DHT22;31071;51.478;5.710;2024-02-21T07:10:13;8.70;99.90
45339;DHT22;31071;51.478;5.710;2024-02-21T07:12:39;10.70;99.90
45339;DHT22;31071;51.478;5.710;2024-02-21T07:15:08;8.70;99.90
45339;DHT22;31071;51.478;5.710;2024-02-21T07:20:00;8.70;99.90
45339;DHT22;31071;51.478;5.710;2024-02-21T07:22:26;8.80;99.90
45339;DHT22;31071;51.478;5.710;2024-02-21T07:27:18;8.70;99.90
45339;DHT22;31071;51.478;5.710;2024-02-21T07:29:47;8.70;99.90
45339;DHT22;31071;51.478;5.710;2024-02-21T07:32:18;11.80;99.90
45339;DHT22;31071;51.478;5.710;2024-02-21T07:37:15;8.80;99.90
45339;DHT22;31071;51.478;5.710;2024-02-21T07:54:18;8.90;99.90
45339;DHT22;31071;51.478;5.710;2024-02-21T07:56:44;13.10;99.90
45339;DHT22;31071;51.478;5.710;2024-02-21T07:59:09;8.80;99.90
45339;DHT22;31071;51.478;5.710;2024-02-21T08:01:35;9.20;99.90
45339;DHT22;31071;51.478;5.710;2024-02-21T08:06:37;8.90;99.90
45339;DHT22;31071;51.478;5.710;2024-02-21T08:09:06;8.90;99.90
45339;DHT22;31071;51.478;5.710;2024-02-21T08:13:58;8.90;99.90
45339;DHT22;31071;51.478;5.710;2024-02-21T08:18:49;8.90;99.90
45339;DHT22;31071;51.478;5.710;2024-02-21T08:21:15;8.70;99.90
45339;DHT22;31071;51.478;5.710;2024-02-21T08:28:33;9.10;99.90
45339;DHT22;31071;51.478;5.710;2024-02-21T08:33:25;9.10;99.90
45339;DHT22;31071;51.478;5.710;2024-02-21T08:35:55;9.00;99.90
45339;DHT22;31071;51.478;5.710;2024-02-21T08:38:26;7.50;99.90
45339;DHT22;31071;51.478;5.710;2024-02-21T08:40:55;9.00;99.90
45339;DHT22;31071;51.478;5.710;2024-02-21T08:48:12;9.10;99.90
45339;DHT22;31071;51.478;5.710;2024-02-21T08:53:04;9.10;99.90
45339;DHT22;31071;51.478;5.710;2024-02-21T08:55:29;9.20;99.90
45339;DHT22;31071;51.478;5.710;2024-02-21T09:02:52;9.10;99.90
45339;DHT22;31071;51.478;5.710;2024-02-21T09:05:18;9.10;99.90
45339;DHT22;31071;51.478;5.710;2024-02-21T09:07:43;9.00;99.90
45339;DHT22;31071;51.478;5.710;2024-02-21T09:12:35;8.80;99.90
45339;DHT22;31071;51.478;5.710;2024-02-21T09:17:31;8.60;99.90
45339;DHT22;31071;51.478;5.710;2024-02-21T09:20:05;8.50;99.90
45339;DHT22;31071;51.478;5.710;2024-02-21T09:32:18;8.60;99.90
45339;DHT22;31071;51.478;5.710;2024-02-21T09:37:11;8.60;99.90
45339;DHT22;31071;51.478;5.710;2024-02-21T09:39:37;9.50;99.90
45339;DHT22;31071;51.478;5.710;2024-02-21T09:42:06;8.70;99.90
45339;DHT22;31071;51.478;5.710;2024-02-21T09:44:37;8.70;99.90
45339;DHT22;31071;51.478;5.710;2024-02-21T09:47:28;8.80;99.90
45339;DHT22;31071;51.478;5.710;2024-02-21T09:49:58;8.80;99.90
45339;DHT22;31071;51.478;5.710;2024-02-21T09:52:26;11.90;99.90
45339;DHT22;31071;51.478;5.710;2024-02-21T09:54:53;8.80;99.90
45339;DHT22;31071;51.478;5.710;2024-02-21T09:57:22;10.50;99.90
45339;DHT22;31071;51.478;5.710;2024-02-21T09:59:51;8.90;99.90
45339;DHT22;31071;51.478;5.710;2024-02-21T10:04:56;7.90;99.90
45339;DHT22;31071;51.478;5.710;2024-02-21T10:10:54;9.10;99.90
45339;DHT22;31071;51.478;5.710;2024-02-21T10:13:27;9.30;99.90
45339;DHT22;31071;51.478;5.710;2024-02-21T10:16:07;9.20;99.90
45339;DHT22;31071;51.478;5.710;2024-02-21T10:18:34;9.30;99.90
45339;DHT22;31071;51.478;5.710;2024-02-21T10:21:01;9.40;99.90
45339;DHT22;31071;51.478;5.710;2024-02-21T10:23:27;9.50;99.90
45339;DHT22;31071;51.478;5.710;2024-02-21T10:25:53;11.80;99.90
45339;DHT22;31071;51.478;5.710;2024-02-21T10:30:53;9.60;99.90
45339;DHT22;31071;51.478;5.710;2024-02-21T10:33:19;11.00;99.90
45339;DHT22;31071;51.478;5.710;2024-02-21T10:35:47;9.60;99.90
45339;DHT22;31071;51.478;5.710;2024-02-21T10:38:13;9.70;99.90
45339;DHT22;31071;51.478;5.710;2024-02-21T10:40:38;9.70;99.90
45339;DHT22;31071;51.478;5.710;2024-02-21T10:43:05;9.80;99.90
45339;DHT22;31071;51.478;5.710;2024-02-21T10:45:34;9.80;99.90
45339;DHT22;31071;51.478;5.710;2024-02-21T10:48:33;9.70;99.90
45339;DHT22;31071;51.478;5.710;2024-02-21T10:51:15;9.80;99.90
45339;DHT22;31071;51.478;5.710;2024-02-21T10:56:36;10.10;99.90
45339;DHT22;31071;51.478;5.710;2024-02-21T10:59:07;10.10;99.90
45339;DHT22;31071;51.478;5.710;2024-02-21T11:01:36;10.10;99.90
45339;DHT22;31071;51.478;5.710;2024-02-21T11:04:06;10.10;99.90
45339;DHT22;31071;51.478;5.710;2024-02-21T11:06:35;10.20;99.90
45339;DHT22;31071;51.478;5.710;2024-02-21T11:09:13;11.10;99.90
45339;DHT22;31071;51.478;5.710;2024-02-21T11:11:46;10.30;99.90
45339;DHT22;31071;51.478;5.710;2024-02-21T11:17:28;10.10;99.90
45339;DHT22;31071;51.478;5.710;2024-02-21T11:19:56;10.10;99.90
45339;DHT22;31071;51.478;5.710;2024-02-21T11:22:22;10.10;99.90
45339;DHT22;31071;51.478;5.710;2024-02-21T11:27:19;10.20;99.90
45339;DHT22;31071;51.478;5.710;2024-02-21T11:29:55;10.30;99.90
45339;DHT22;31071;51.478;5.710;2024-02-21T11:32:31;10.40;99.90
45339;DHT22;31071;51.478;5.710;2024-02-21T11:34:59;10.40;99.90
45339;DHT22;31071;51.478;5.710;2024-02-21T11:37:32;10.40;99.90
45339;DHT22;31071;51.478;5.710;2024-02-21T11:39:59;10.80;99.90
45339;DHT22;31071;51.478;5.710;2024-02-21T11:42:28;12.50;99.90
45339;DHT22;31071;51.478;5.710;2024-02-21T11:44:56;10.50;99.90
45339;DHT22;31071;51.478;5.710;2024-02-21T11:47:25;10.50;99.90
45339;DHT22;31071;51.478;5.710;2024-02-21T11:49:51;10.60;99.90
45339;DHT22;31071;51.478;5.710;2024-02-21T11:52:25;10.90;99.90
45339;DHT22;31071;51.478;5.710;2024-02-21T11:54:52;11.40;99.90
45339;DHT22;31071;51.478;5.710;2024-02-21T11:57:23;12.70;99.90
45339;DHT22;31071;51.478;5.710;2024-02-21T11:59:48;13.40;99.90
45339;DHT22;31071;51.478;5.710;2024-02-21T12:02:18;14.40;99.90
45339;DHT22;31071;51.478;5.710;2024-02-21T12:04:53;11.80;99.90
45339;DHT22;31071;51.478;5.710;2024-02-21T12:07:21;11.20;99.90
45339;DHT22;31071;51.478;5.710;2024-02-21T12:09:48;13.90;99.90
45339;DHT22;31071;51.478;5.710;2024-02-21T12:12:20;11.10;99.90
45339;DHT22;31071;51.478;5.710;2024-02-21T12:14:57;11.10;99.90
45339;DHT22;31071;51.478;5.710;2024-02-21T12:17:23;11.20;99.90
45339;DHT22;31071;51.478;5.710;2024-02-21T12:19:53;11.30;99.90
45339;DHT22;31071;51.478;5.710;2024-02-21T12:22:19;11.40;99.90
45339;DHT22;31071;51.478;5.710;2024-02-21T12:24:56;11.60;99.90
45339;DHT22;31071;51.478;5.710;2024-02-21T12:27:28;11.60;99.90
45339;DHT22;31071;51.478;5.710;2024-02-21T12:29:57;11.60;99.90
45339;DHT22;31071;51.478;5.710;2024-02-21T12:32:23;12.90;99.90
45339;DHT22;31071;51.478;5.710;2024-02-21T12:34:51;11.80;99.90
45339;DHT22;31071;51.478;5.710;2024-02-21T12:37:17;11.50;99.90
45339;DHT22;31071;51.478;5.710;2024-02-21T12:39:51;11.50;99.90
45339;DHT22;31071;51.478;5.710;2024-02-21T12:42:32;11.50;99.90
45339;DHT22;31071;51.478;5.710;2024-02-21T12:45:10;11.40;99.90
45339;DHT22;31071;51.478;5.710;2024-02-21T12:47:43;11.80;99.90
45339;DHT22;31071;51.478;5.710;2024-02-21T12:50:18;11.60;99.90
45339;DHT22;31071;51.478;5.710;2024-02-21T12:52:49;11.60;99.90
45339;DHT22;31071;51.478;5.710;2024-02-21T12:55:15;11.70;99.90
45339;DHT22;31071;51.478;5.710;2024-02-21T12:57:42;11.70;99.90
45339;DHT22;31071;51.478;5.710;2024-02-21T13:00:11;11.60;99.90
45339;DHT22;31071;51.478;5.710;2024-02-21T13:02:43;11.60;99.90
45339;DHT22;31071;51.478;5.710;2024-02-21T13:05:09;11.60;99.90
45339;DHT22;31071;51.478;5.710;2024-02-21T13:07:35;11.60;99.90
45339;DHT22;31071;51.478;5.710;2024-02-21T13:10:01;11.60;99.90
45339;DHT22;31071;51.478;5.710;2024-02-21T13:14:53;11.60;99.90
45339;DHT22;31071;51.478;5.710;2024-02-21T13:17:19;11.50;99.90
45339;DHT22;31071;51.478;5.710;2024-02-21T13:19:45;11.40;99.90
45339;DHT22;31071;51.478;5.710;2024-02-21T13:22:10;11.40;99.90
45339;DHT22;31071;51.478;5.710;2024-02-21T13:24:36;11.50;99.90
45339;DHT22;31071;51.478;5.710;2024-02-21T13:27:02;12.80;99.90
45339;DHT22;31071;51.478;5.710;2024-02-21T13:29:28;10.80;99.90
45339;DHT22;31071;51.478;5.710;2024-02-21T13:31:54;12.40;99.90
45339;DHT22;31071;51.478;5.710;2024-02-21T13:34:20;11.40;99.90
45339;DHT22;31071;51.478;5.710;2024-02-21T13:36:46;11.40;99.90
45339;DHT22;31071;51.478;5.710;2024-02-21T13:39:15;11.20;99.90
45339;DHT22;31071;51.478;5.710;2024-02-21T13:41:49;11.20;99.90
45339;DHT22;31071;51.478;5.710;2024-02-21T13:44:15;11.20;99.90
45339;DHT22;31071;51.478;5.710;2024-02-21T13:46:40;11.20;99.90
45339;DHT22;31071;51.478;5.710;2024-02-21T13:51:38;11.10;99.90
45339;DHT22;31071;51.478;5.710;2024-02-21T13:54:08;11.10;99.90
45339;DHT22;31071;51.478;5.710;2024-02-21T13:56:37;11.10;99.90
45339;DHT22;31071;51.478;5.710;2024-02-21T14:02:28;11.10;99.90
45339;DHT22;31071;51.478;5.710;2024-02-21T14:04:57;11.10;99.90
45339;DHT22;31071;51.478;5.710;2024-02-21T14:07:23;11.00;99.90
45339;DHT22;31071;51.478;5.710;2024-02-21T14:09:49;11.80;99.90
45339;DHT22;31071;51.478;5.710;2024-02-21T14:12:18;11.00;99.90
45339;DHT22;31071;51.478;5.710;2024-02-21T14:14:48;11.00;99.90
45339;DHT22;31071;51.478;5.710;2024-02-21T14:17:27;10.90;99.90
45339;DHT22;31071;51.478;5.710;2024-02-21T14:19:59;11.00;99.90
45339;DHT22;31071;51.478;5.710;2024-02-21T14:22:24;10.90;99.90
45339;DHT22;31071;51.478;5.710;2024-02-21T14:24:56;10.90;99.90
45339;DHT22;31071;51.478;5.710;2024-02-21T14:27:27;10.90;99.90
45339;DHT22;31071;51.478;5.710;2024-02-21T14:30:05;10.90;99.90
45339;DHT22;31071;51.478;5.710;2024-02-21T14:32:39;10.90;99.90
45339;DHT22;31071;51.478;5.710;2024-02-21T14:35:07;11.00;99.90
45339;DHT22;31071;51.478;5.710;2024-02-21T14:37:35;10.90;99.90
45339;DHT22;31071;51.478;5.710;2024-02-21T14:40:20;10.90;99.90
45339;DHT22;31071;51.478;5.710;2024-02-21T14:43:14;11.40;99.90
45339;DHT22;31071;51.478;5.710;2024-02-21T14:45:55;11.00;99.90
45339;DHT22;31071;51.478;5.710;2024-02-21T14:48:30;10.90;99.90
45339;DHT22;31071;51.478;5.710;2024-02-21T14:51:01;10.90;99.90
45339;DHT22;31071;51.478;5.710;2024-02-21T14:53:33;10.90;99.90
45339;DHT22;31071;51.478;5.710;2024-02-21T14:56:17;10.90;99.90
45339;DHT22;31071;51.478;5.710;2024-02-21T14:58:48;10.90;99.90
45339;DHT22;31071;51.478;5.710;2024-02-21T15:01:22;10.90;99.90
45339;DHT22;31071;51.478;5.710;2024-02-21T15:03:51;10.90;99.90
45339;DHT22;31071;51.478;5.710;2024-02-21T15:06:20;10.80;99.90
45339;DHT22;31071;51.478;5.710;2024-02-21T15:08:48;10.80;99.90
45339;DHT22;31071;51.478;5.710;2024-02-21T15:11:15;10.70;99.90
45339;DHT22;31071;51.478;5.710;2024-02-21T15:13:41;12.90;99.90
45339;DHT22;31071;51.478;5.710;2024-02-21T15:16:06;13.30;99.90
45339;DHT22;31071;51.478;5.710;2024-02-21T15:18:32;10.50;99.90
45339;DHT22;31071;51.478;5.710;2024-02-21T15:20:59;10.50;99.90
45339;DHT22;31071;51.478;5.710;2024-02-21T15:23:25;10.20;99.90
45339;DHT22;31071;51.478;5.710;2024-02-21T15:25:51;10.40;99.90
45339;DHT22;31071;51.478;5.710;2024-02-21T15:28:16;10.40;99.90
45339;DHT22;31071;51.478;5.710;2024-02-21T15:30:42;10.30;99.90
45339;DHT22;31071;51.478;5.710;2024-02-21T15:33:08;10.30;99.90
45339;DHT22;31071;51.478;5.710;2024-02-21T15:35:34;10.30;99.90
45339;DHT22;31071;51.478;5.710;2024-02-21T15:38:01;10.20;99.90
45339;DHT22;31071;51.478;5.710;2024-02-21T15:42:52;10.00;99.90
45339;DHT22;31071;51.478;5.710;2024-02-21T15:45:19;9.90;99.90
45339;DHT22;31071;51.478;5.710;2024-02-21T15:47:47;9.80;99.90
45339;DHT22;31071;51.478;5.710;2024-02-21T15:50:19;9.80;99.90
45339;DHT22;31071;51.478;5.710;2024-02-21T15:52:45;9.80;99.90
45339;DHT22;31071;51.478;5.710;2024-02-21T15:55:10;9.80;99.90
45339;DHT22;31071;51.478;5.710;2024-02-21T15:57:41;9.70;99.90
45339;DHT22;31071;51.478;5.710;2024-02-21T16:00:07;9.60;99.90
45339;DHT22;31071;51.478;5.710;2024-02-21T16:02:38;9.60;99.90
45339;DHT22;31071;51.478;5.710;2024-02-21T16:05:10;9.60;99.90
45339;DHT22;31071;51.478;5.710;2024-02-21T16:07:39;9.60;99.90
45339;DHT22;31071;51.478;5.710;2024-02-21T16:10:05;9.50;99.90
45339;DHT22;31071;51.478;5.710;2024-02-21T16:12:32;9.40;99.90
45339;DHT22;31071;51.478;5.710;2024-02-21T16:17:32;9.20;99.90
45339;DHT22;31071;51.478;5.710;2024-02-21T16:20:03;9.20;99.90
45339;DHT22;31071;51.478;5.710;2024-02-21T16:22:35;9.20;99.90
45339;DHT22;31071;51.478;5.710;2024-02-21T16:25:00;9.10;99.90
45339;DHT22;31071;51.478;5.710;2024-02-21T16:27:26;9.10;99.90
45339;DHT22;31071;51.478;5.710;2024-02-21T16:29:52;9.00;99.90
45339;DHT22;31071;51.478;5.710;2024-02-21T16:32:17;9.00;99.90
45339;DHT22;31071;51.478;5.710;2024-02-21T16:37:10;9.00;99.90
45339;DHT22;31071;51.478;5.710;2024-02-21T16:42:02;8.90;99.90
45339;DHT22;31071;51.478;5.710;2024-02-21T16:46:56;8.80;99.90
45339;DHT22;31071;51.478;5.710;2024-02-21T16:49:22;10.60;99.90
45339;DHT22;31071;51.478;5.710;2024-02-21T16:51:48;8.70;99.90
45339;DHT22;31071;51.478;5.710;2024-02-21T16:54:24;13.00;99.90
45339;DHT22;31071;51.478;5.710;2024-02-21T16:56:53;8.70;99.90
45339;DHT22;31071;51.478;5.710;2024-02-21T16:59:19;8.70;99.90
45339;DHT22;31071;51.478;5.710;2024-02-21T17:01:48;8.80;99.90
45339;DHT22;31071;51.478;5.710;2024-02-21T17:04:16;8.70;99.90
45339;DHT22;31071;51.478;5.710;2024-02-21T17:06:42;8.70;99.90
45339;DHT22;31071;51.478;5.710;2024-02-21T17:09:08;8.70;99.90
45339;DHT22;31071;51.478;5.710;2024-02-21T17:11:38;8.70;99.90
45339;DHT22;31071;51.478;5.710;2024-02-21T17:14:04;8.70;99.90
45339;DHT22;31071;51.478;5.710;2024-02-21T17:19:02;8.70;99.90
45339;DHT22;31071;51.478;5.710;2024-02-21T17:24:00;8.70;99.90
45339;DHT22;31071;51.478;5.710;2024-02-21T17:28:54;8.70;99.90
45339;DHT22;31071;51.478;5.710;2024-02-21T17:31:20;8.60;99.90
45339;DHT22;31071;51.478;5.710;2024-02-21T17:33:46;8.70;99.90
45339;DHT22;31071;51.478;5.710;2024-02-21T17:36:12;8.60;99.90
45339;DHT22;31071;51.478;5.710;2024-02-21T17:38:37;8.60;99.90
45339;DHT22;31071;51.478;5.710;2024-02-21T17:41:03;8.60;99.90
45339;DHT22;31071;51.478;5.710;2024-02-21T17:43:29;8.60;99.90
45339;DHT22;31071;51.478;5.710;2024-02-21T17:46:00;8.60;99.90
45339;DHT22;31071;51.478;5.710;2024-02-21T17:48:26;8.50;99.90
45339;DHT22;31071;51.478;5.710;2024-02-21T17:50:52;9.50;99.90
45339;DHT22;31071;51.478;5.710;2024-02-21T17:53:18;10.80;99.90
45339;DHT22;31071;51.478;5.710;2024-02-21T17:55:44;8.50;99.90
45339;DHT22;31071;51.478;5.710;2024-02-21T17:58:09;8.50;99.90
45339;DHT22;31071;51.478;5.710;2024-02-21T18:03:03;8.50;99.90
45339;DHT22;31071;51.478;5.710;2024-02-21T18:05:28;8.50;99.90
45339;DHT22;31071;51.478;5.710;2024-02-21T18:07:56;8.50;99.90
45339;DHT22;31071;51.478;5.710;2024-02-21T18:10:22;8.50;99.90
45339;DHT22;31071;51.478;5.710;2024-02-21T18:12:48;10.60;99.90
45339;DHT22;31071;51.478;5.710;2024-02-21T18:15:13;8.50;99.90
45339;DHT22;31071;51.478;5.710;2024-02-21T18:20:06;8.40;99.90
45339;DHT22;31071;51.478;5.710;2024-02-21T18:22:33;8.50;99.90
45339;DHT22;31071;51.478;5.710;2024-02-21T18:25:00;8.50;99.90
45339;DHT22;31071;51.478;5.710;2024-02-21T18:27:25;8.40;99.90
45339;DHT22;31071;51.478;5.710;2024-02-21T18:29:53;8.50;99.90
45339;DHT22;31071;51.478;5.710;2024-02-21T18:32:18;11.00;99.90
45339;DHT22;31071;51.478;5.710;2024-02-21T18:34:44;11.50;99.90
45339;DHT22;31071;51.478;5.710;2024-02-21T18:37:10;9.40;99.90
45339;DHT22;31071;51.478;5.710;2024-02-21T18:42:02;8.50;99.90
45339;DHT22;31071;51.478;5.710;2024-02-21T18:44:28;8.50;99.90
45339;DHT22;31071;51.478;5.710;2024-02-21T18:49:20;8.50;99.90
45339;DHT22;31071;51.478;5.710;2024-02-21T18:51:46;8.50;99.90
45339;DHT22;31071;51.478;5.710;2024-02-21T18:54:12;9.60;99.90
45339;DHT22;31071;51.478;5.710;2024-02-21T18:56:48;8.50;99.90
45339;DHT22;31071;51.478;5.710;2024-02-21T18:59:13;8.50;99.90
45339;DHT22;31071;51.478;5.710;2024-02-21T19:01:39;8.50;99.90
45339;DHT22;31071;51.478;5.710;2024-02-21T19:04:05;8.40;99.90
45339;DHT22;31071;51.478;5.710;2024-02-21T19:06:30;8.60;99.90
45339;DHT22;31071;51.478;5.710;2024-02-21T19:11:25;8.60;99.90
45339;DHT22;31071;51.478;5.710;2024-02-21T19:13:51;8.50;99.90
45339;DHT22;31071;51.478;5.710;2024-02-21T19:16:16;10.00;99.90
45339;DHT22;31071;51.478;5.710;2024-02-21T19:23:35;8.60;99.90
45339;DHT22;31071;51.478;5.710;2024-02-21T19:26:03;8.50;99.90
45339;DHT22;31071;51.478;5.710;2024-02-21T19:28:29;8.60;99.90
45339;DHT22;31071;51.478;5.710;2024-02-21T19:33:21;8.60;99.90
45339;DHT22;31071;51.478;5.710;2024-02-21T19:35:46;8.60;99.90
45339;DHT22;31071;51.478;5.710;2024-02-21T19:38:12;9.70;99.90
45339;DHT22;31071;51.478;5.710;2024-02-21T19:40:37;8.50;99.90
45339;DHT22;31071;51.478;5.710;2024-02-21T19:43:03;8.60;99.90
45339;DHT22;31071;51.478;5.710;2024-02-21T19:45:29;8.60;99.90
45339;DHT22;31071;51.478;5.710;2024-02-21T19:47:54;8.60;99.90
45339;DHT22;31071;51.478;5.710;2024-02-21T19:50:20;8.60;99.90
45339;DHT22;31071;51.478;5.710;2024-02-21T19:52:55;9.80;99.90
45339;DHT22;31071;51.478;5.710;2024-02-21T19:55:20;8.60;99.90
45339;DHT22;31071;51.478;5.710;2024-02-21T19:57:46;8.60;99.90
45339;DHT22;31071;51.478;5.710;2024-02-21T20:00:13;8.60;99.90
45339;DHT22;31071;51.478;5.710;2024-02-21T20:02:39;8.60;99.90
45339;DHT22;31071;51.478;5.710;2024-02-21T20:05:08;8.60;99.90
45339;DHT22;31071;51.478;5.710;2024-02-21T20:07:34;8.60;99.90
45339;DHT22;31071;51.478;5.710;2024-02-21T20:09:59;10.10;99.90
45339;DHT22;31071;51.478;5.710;2024-02-21T20:12:25;8.30;99.90
45339;DHT22;31071;51.478;5.710;2024-02-21T20:14:52;10.20;99.90
45339;DHT22;31071;51.478;5.710;2024-02-21T20:17:18;10.00;99.90
45339;DHT22;31071;51.478;5.710;2024-02-21T20:19:44;6.60;99.90
45339;DHT22;31071;51.478;5.710;2024-02-21T20:22:11;8.50;99.90
45339;DHT22;31071;51.478;5.710;2024-02-21T20:24:36;8.40;99.90
45339;DHT22;31071;51.478;5.710;2024-02-21T20:27:02;8.70;99.90
45339;DHT22;31071;51.478;5.710;2024-02-21T20:29:27;8.70;99.90
45339;DHT22;31071;51.478;5.710;2024-02-21T20:36:51;8.70;99.90
45339;DHT22;31071;51.478;5.710;2024-02-21T20:39:18;8.70;99.90
45339;DHT22;31071;51.478;5.710;2024-02-21T20:41:44;8.70;99.90
45339;DHT22;31071;51.478;5.710;2024-02-21T20:44:09;10.20;99.90
45339;DHT22;31071;51.478;5.710;2024-02-21T20:46:41;10.90;99.90
45339;DHT22;31071;51.478;5.710;2024-02-21T20:49:06;8.80;99.90
45339;DHT22;31071;51.478;5.710;2024-02-21T20:51:32;8.70;99.90
45339;DHT22;31071;51.478;5.710;2024-02-21T20:53:57;8.70;99.90
45339;DHT22;31071;51.478;5.710;2024-02-21T20:56:23;8.70;99.90
45339;DHT22;31071;51.478;5.710;2024-02-21T20:58:49;10.70;99.90